Time;durP1;ratioP1;P1;durP2;ratioP2;P2;SDS_P1;SDS_P2;PMS_P1;PMS_P2;Temp;Humidity;BMP_temperature;BMP_pressure;BME280_temperature;BME280_humidity;BME280_pressure;Samples;Min_cycle;Max_cycle;Signal;HPM_P1;HPM_P2
2021/10/04 00:01:23;;;;;;;3.27;1.83;;;10.60;1.00;;;;;;4974701;28;20735;-67
2021/10/04 00:03:49;;;;;;;2.63;1.10;;;10.60;1.00;;;;;;4974789;28;20231;-66
2021/10/04 00:06:17;;;;;;;4.10;1.10;;;10.60;1.00;;;;;;4974454;28;20267;-67
2021/10/04 00:08:45;;;;;;;2.40;1.20;;;10.60;1.00;;;;;;4974420;28;20228;-66
2021/10/04 00:11:12;;;;;;;1.57;1.03;;;10.60;1.00;;;;;;4974877;28;20267;-66
2021/10/04 00:13:38;;;;;;;3.83;1.30;;;10.60;1.00;;;;;;4974477;28;20283;-66
2021/10/04 00:16:05;;;;;;;2.80;1.20;;;10.60;1.00;;;;;;4974298;28;20291;-67
2021/10/04 00:18:32;;;;;;;2.03;0.90;;;10.60;1.00;;;;;;4974416;28;20275;-67
2021/10/04 00:20:58;;;;;;;2.23;0.97;;;10.60;1.00;;;;;;4974511;28;20561;-67
2021/10/04 00:23:25;;;;;;;3.87;1.10;;;10.70;99.90;;;;;;4973565;28;20673;-67
2021/10/04 00:25:53;;;;;;;2.30;0.97;;;10.70;99.90;;;;;;4974243;28;20255;-66
2021/10/04 00:28:20;;;;;;;3.87;1.03;;;10.70;99.90;;;;;;4974154;28;20236;-66
2021/10/04 00:30:47;;;;;;;4.03;1.03;;;10.70;99.90;;;;;;4974311;28;20640;-66
2021/10/04 00:33:13;;;;;;;1.60;0.80;;;10.70;99.90;;;;;;4974251;28;20225;-66
2021/10/04 00:35:40;;;;;;;1.70;1.07;;;10.70;99.90;;;;;;4973752;28;20208;-66
2021/10/04 00:38:07;;;;;;;7.93;1.33;;;10.70;99.90;;;;;;4974140;28;20673;-66
2021/10/04 00:40:36;;;;;;;2.50;1.00;;;10.70;99.90;;;;;;4974147;28;20700;-65
2021/10/04 00:43:04;;;;;;;2.67;1.37;;;10.60;99.90;;;;;;4974245;28;20208;-66
2021/10/04 00:45:32;;;;;;;2.90;1.20;;;10.60;1.00;;;;;;4973642;28;20205;-66
2021/10/04 00:48:00;;;;;;;2.10;1.00;;;10.60;99.90;;;;;;4974185;28;20208;-66
2021/10/04 00:50:28;;;;;;;2.57;1.00;;;10.60;99.90;;;;;;4973595;28;20227;-66
2021/10/04 00:52:55;;;;;;;1.63;1.07;;;10.60;1.00;;;;;;4974071;28;20224;-67
2021/10/04 00:55:22;;;;;;;4.80;1.10;;;10.60;1.00;;;;;;4973588;28;20220;-65
2021/10/04 00:57:49;;;;;;;3.17;1.00;;;10.60;99.90;;;;;;4973942;28;20212;-66
2021/10/04 01:00:25;;;;;;;2.80;1.03;;;10.60;99.90;;;;;;4973860;28;20348;-66
2021/10/04 01:02:53;;;;;;;3.50;1.20;;;10.60;99.90;;;;;;4973650;28;20216;-66
2021/10/04 01:05:20;;;;;;;2.90;1.07;;;10.60;99.90;;;;;;4973567;28;20286;-67
2021/10/04 01:07:47;;;;;;;2.63;1.10;;;10.60;99.90;;;;;;4973810;28;20219;-66
2021/10/04 01:10:15;;;;;;;5.00;1.10;;;10.60;99.90;;;;;;4973723;28;20228;-66
2021/10/04 01:12:44;;;;;;;2.63;1.00;;;10.60;99.90;;;;;;4973369;28;20716;-66
2021/10/04 01:15:12;;;;;;;3.57;1.10;;;10.60;1.00;;;;;;4973245;28;20263;-66
2021/10/04 01:17:40;;;;;;;4.27;1.30;;;10.60;99.90;;;;;;4973327;28;20233;-66
2021/10/04 01:20:12;;;;;;;2.23;0.93;;;10.70;99.90;;;;;;4973807;28;20277;-66
2021/10/04 01:22:39;;;;;;;1.50;0.70;;;10.70;99.90;;;;;;4973518;28;20632;-66
2021/10/04 01:25:07;;;;;;;3.10;1.00;;;10.60;99.90;;;;;;4973222;28;20616;-66
2021/10/04 01:27:34;;;;;;;3.00;1.10;;;10.70;99.90;;;;;;4973443;28;20216;-66
2021/10/04 01:30:00;;;;;;;3.33;1.30;;;10.70;99.90;;;;;;4972951;28;20309;-67
2021/10/04 01:32:27;;;;;;;2.77;1.17;;;10.70;99.90;;;;;;4973331;28;20236;-66
2021/10/04 01:34:55;;;;;;;2.97;1.00;;;10.70;99.90;;;;;;4972702;28;20228;-66
2021/10/04 01:37:24;;;;;;;3.30;1.10;;;10.70;99.90;;;;;;4973468;28;20216;-66
2021/10/04 01:39:50;;;;;;;3.27;1.30;;;10.70;99.90;;;;;;4973095;28;20739;-67
2021/10/04 01:42:17;;;;;;;2.90;1.33;;;10.70;99.90;;;;;;4973253;28;20212;-67
2021/10/04 01:44:44;;;;;;;3.80;1.20;;;10.60;1.00;;;;;;4972808;28;20271;-66
2021/10/04 01:47:10;;;;;;;3.27;1.33;;;10.60;1.00;;;;;;4973374;28;20259;-67
2021/10/04 01:49:37;;;;;;;4.33;1.20;;;10.60;1.00;;;;;;4972979;28;20240;-67
2021/10/04 01:52:04;;;;;;;2.80;0.90;;;10.60;1.00;;;;;;4973260;28;20628;-66
2021/10/04 01:54:33;;;;;;;1.57;1.00;;;10.60;1.00;;;;;;4972901;28;20228;-67
2021/10/04 01:56:59;;;;;;;2.13;1.20;;;10.60;1.00;;;;;;4972966;28;20212;-67
2021/10/04 01:59:26;;;;;;;2.57;0.87;;;10.60;99.90;;;;;;4972979;28;20727;-66
2021/10/04 02:01:53;;;;;;;2.30;1.20;;;10.70;99.90;;;;;;4973043;28;20215;-66
2021/10/04 02:04:19;;;;;;;3.17;0.93;;;10.70;63.90;;;;;;4973161;28;20204;-66
2021/10/04 02:06:49;;;;;;;4.20;1.43;;;10.70;24.10;;;;;;4972655;28;20243;-66
2021/10/04 02:09:16;;;;;;;3.13;1.20;;;10.70;55.30;;;;;;4972990;28;20315;-66
2021/10/04 02:11:45;;;;;;;3.67;1.10;;;10.70;98.70;;;;;;4972768;28;20263;-66
2021/10/04 02:14:12;;;;;;;4.37;1.20;;;10.70;1.00;;;;;;4972982;28;20228;-66
2021/10/04 02:16:38;;;;;;;2.47;1.23;;;10.70;1.00;;;;;;4972631;28;20212;-66
2021/10/04 02:19:05;;;;;;;4.70;1.37;;;10.70;1.00;;;;;;4972954;28;20228;-66
2021/10/04 02:21:32;;;;;;;1.67;1.23;;;10.70;43.80;;;;;;4972925;28;20209;-66
2021/10/04 02:23:58;;;;;;;3.03;1.17;;;10.60;99.90;;;;;;4972780;28;20209;-65
2021/10/04 02:26:25;;;;;;;3.53;1.30;;;10.60;1.00;;;;;;4972383;28;20271;-66
2021/10/04 02:28:53;;;;;;;1.90;1.00;;;10.60;1.00;;;;;;4972538;28;20808;-67
2021/10/04 02:31:20;;;;;;;2.87;1.10;;;10.60;1.00;;;;;;4972814;28;20735;-66
2021/10/04 02:33:46;;;;;;;2.80;1.27;;;10.60;1.00;;;;;;4972675;28;20283;-66
2021/10/04 02:36:13;;;;;;;3.00;1.00;;;10.60;1.00;;;;;;4972464;28;20630;-66
2021/10/04 02:38:40;;;;;;;5.10;0.90;;;10.60;1.00;;;;;;4972632;28;20227;-66
2021/10/04 02:41:07;;;;;;;3.30;1.30;;;10.60;1.00;;;;;;4972753;28;20231;-66
2021/10/04 02:43:33;;;;;;;3.00;1.20;;;10.60;99.90;;;;;;4972393;28;20736;-67
2021/10/04 02:46:01;;;;;;;2.13;1.00;;;10.60;99.90;;;;;;4973426;28;20736;-67
2021/10/04 02:48:28;;;;;;;5.17;1.10;;;10.60;99.90;;;;;;4976001;28;20233;-66
2021/10/04 02:50:55;;;;;;;3.80;1.20;;;10.70;99.90;;;;;;4976235;28;20263;-67
2021/10/04 02:53:21;;;;;;;4.20;0.97;;;10.70;99.90;;;;;;4975917;28;20275;-66
2021/10/04 02:55:48;;;;;;;3.87;1.13;;;10.60;99.90;;;;;;4975856;28;20240;-66
2021/10/04 02:58:14;;;;;;;2.90;1.30;;;10.60;99.90;;;;;;4976088;28;20228;-67
2021/10/04 03:00:41;;;;;;;3.17;1.20;;;10.60;1.00;;;;;;4975889;28;20208;-66
2021/10/04 03:03:09;;;;;;;2.30;1.10;;;10.60;1.00;;;;;;4976015;28;20637;-66
2021/10/04 03:05:36;;;;;;;2.73;1.10;;;10.60;1.00;;;;;;4975410;28;20201;-66
2021/10/04 03:08:05;;;;;;;2.53;1.00;;;10.60;1.00;;;;;;4975718;28;20208;-67
2021/10/04 03:10:32;;;;;;;4.60;1.00;;;10.60;1.00;;;;;;4976098;28;20214;-66
2021/10/04 03:12:59;;;;;;;6.33;1.50;;;10.60;1.00;;;;;;4975916;28;20636;-67
2021/10/04 03:15:26;;;;;;;3.73;1.30;;;10.60;1.00;;;;;;4975705;28;20228;-65
2021/10/04 03:17:53;;;;;;;2.37;1.00;;;10.60;1.00;;;;;;4975634;28;20566;-66
2021/10/04 03:20:21;;;;;;;3.83;1.10;;;10.60;1.00;;;;;;4975646;28;20216;-66
2021/10/04 03:22:48;;;;;;;2.40;1.10;;;10.60;1.00;;;;;;4975537;28;20286;-66
2021/10/04 03:25:15;;;;;;;1.77;1.10;;;10.60;99.90;;;;;;4975510;28;20631;-66
2021/10/04 03:27:43;;;;;;;1.27;1.00;;;10.60;1.00;;;;;;4975924;28;20208;-66
2021/10/04 03:30:11;;;;;;;2.93;1.00;;;10.60;1.00;;;;;;4975242;28;20240;-67
2021/10/04 03:32:38;;;;;;;2.07;1.30;;;10.60;1.00;;;;;;4975391;28;20673;-66
2021/10/04 03:35:05;;;;;;;5.97;1.37;;;10.60;1.00;;;;;;4974703;28;20253;-66
2021/10/04 03:37:33;;;;;;;3.67;1.30;;;10.60;1.00;;;;;;4975443;28;20208;-66
2021/10/04 03:40:00;;;;;;;2.07;1.23;;;10.50;1.00;;;;;;4975392;28;20268;-66
2021/10/04 03:42:26;;;;;;;1.83;1.17;;;10.50;5.20;;;;;;4975281;28;20205;-66
2021/10/04 03:44:53;;;;;;;1.93;1.03;;;10.50;47.90;;;;;;4974891;28;20216;-66
2021/10/04 03:47:20;;;;;;;1.47;1.10;;;10.60;53.30;;;;;;4975173;28;20259;-66
2021/10/04 03:49:46;;;;;;;3.50;1.17;;;10.60;99.90;;;;;;4974764;28;20783;-66
2021/10/04 03:52:13;;;;;;;2.17;1.30;;;10.70;1.00;;;;;;4975226;28;20212;-66
2021/10/04 03:54:41;;;;;;;2.63;1.37;;;10.70;1.00;;;;;;4974675;28;20303;-66
2021/10/04 03:57:08;;;;;;;1.87;1.20;;;10.70;1.00;;;;;;4974186;28;20205;-66
2021/10/04 03:59:34;;;;;;;2.40;1.10;;;10.80;99.90;;;;;;4975026;28;20294;-66
2021/10/04 04:02:01;;;;;;;2.07;1.07;;;10.80;99.90;;;;;;4974864;28;20263;-66
2021/10/04 04:04:28;;;;;;;5.23;1.27;;;10.80;99.90;;;;;;4974979;28;20279;-66
2021/10/04 04:06:55;;;;;;;1.77;1.20;;;10.80;99.90;;;;;;4974614;28;20216;-64
2021/10/04 04:09:21;;;;;;;3.37;1.10;;;10.80;99.90;;;;;;4974901;28;20228;-66
2021/10/04 04:11:50;;;;;;;2.53;1.20;;;10.80;99.90;;;;;;4974760;28;20673;-66
2021/10/04 04:14:17;;;;;;;2.20;0.97;;;10.70;1.00;;;;;;4974716;28;20228;-66
2021/10/04 04:16:43;;;;;;;2.13;1.00;;;10.70;1.00;;;;;;4974122;28;20315;-66
2021/10/04 04:19:10;;;;;;;3.90;1.33;;;10.70;1.00;;;;;;4974615;28;20287;-66
2021/10/04 04:21:38;;;;;;;5.40;1.13;;;10.70;1.00;;;;;;4974676;28;20208;-66
2021/10/04 04:24:05;;;;;;;6.90;1.40;;;10.70;1.00;;;;;;4974910;28;20648;-66
2021/10/04 04:26:32;;;;;;;3.53;0.90;;;10.70;1.00;;;;;;4970128;28;20744;-67
2021/10/04 04:29:00;;;;;;;1.60;0.93;;;10.70;1.00;;;;;;4973561;28;20225;-67
2021/10/04 04:31:26;;;;;;;1.03;0.93;;;10.70;1.00;;;;;;4967435;28;20204;-66
2021/10/04 04:33:53;;;;;;;2.27;1.13;;;10.70;1.00;;;;;;4973635;28;20208;-66
2021/10/04 04:36:20;;;;;;;3.43;1.10;;;10.80;1.00;;;;;;4973630;28;20601;-66
2021/10/04 04:38:47;;;;;;;3.43;1.10;;;10.90;99.90;;;;;;4973534;28;20319;-66
2021/10/04 04:41:13;;;;;;;3.53;1.37;;;10.90;1.00;;;;;;4973634;28;20212;-66
2021/10/04 04:43:40;;;;;;;2.57;1.10;;;10.90;1.00;;;;;;4973622;28;20283;-65
2021/10/04 04:46:08;;;;;;;1.80;1.10;;;10.80;1.00;;;;;;4973984;28;20212;-66
2021/10/04 04:48:35;;;;;;;1.20;0.90;;;10.80;43.40;;;;;;4973927;28;20232;-65
2021/10/04 04:51:01;;;;;;;2.07;1.13;;;10.80;1.00;;;;;;4973820;28;20243;-67
2021/10/04 04:53:28;;;;;;;4.60;1.10;;;10.80;1.00;;;;;;4973784;28;20266;-65
2021/10/04 04:55:55;;;;;;;2.97;1.13;;;10.90;1.00;;;;;;4973262;28;20236;-65
2021/10/04 04:58:22;;;;;;;3.53;1.40;;;10.90;1.00;;;;;;4973431;28;20236;-65
2021/10/04 05:00:48;;;;;;;5.40;1.30;;;10.90;1.00;;;;;;4973237;28;20645;-65
2021/10/04 05:03:18;;;;;;;2.03;1.23;;;10.90;1.00;;;;;;4973516;28;20209;-65
2021/10/04 05:05:44;;;;;;;3.23;1.00;;;10.90;1.00;;;;;;4972879;28;20208;-65
2021/10/04 05:08:11;;;;;;;2.57;0.90;;;10.80;99.90;;;;;;4976908;28;20691;-66
2021/10/04 05:10:38;;;;;;;2.80;1.10;;;10.80;99.90;;;;;;4992743;28;20676;-66
2021/10/04 05:13:04;;;;;;;3.50;1.10;;;10.80;1.00;;;;;;4992646;28;20731;-65
2021/10/04 05:15:32;;;;;;;3.00;1.10;;;10.80;1.00;;;;;;4992432;28;20577;-65
2021/10/04 05:17:58;;;;;;;1.17;0.90;;;10.80;1.00;;;;;;4992943;28;20616;-64
2021/10/04 05:20:27;;;;;;;3.60;1.03;;;10.80;1.00;;;;;;4992897;28;20208;-64
2021/10/04 05:22:53;;;;;;;1.97;0.97;;;10.80;1.00;;;;;;4992565;28;20212;-65
2021/10/04 05:25:20;;;;;;;3.53;1.03;;;10.80;1.00;;;;;;4986399;28;20255;-68
2021/10/04 05:27:47;;;;;;;2.10;1.07;;;10.80;1.00;;;;;;4965746;28;20212;-65
2021/10/04 05:30:13;;;;;;;1.70;1.10;;;10.80;1.00;;;;;;4972846;28;20228;-64
2021/10/04 05:32:40;;;;;;;1.87;1.03;;;10.80;99.90;;;;;;4972961;28;20209;-68
2021/10/04 05:35:08;;;;;;;0.90;0.80;;;10.80;99.90;;;;;;4972325;28;20724;-68
2021/10/04 05:37:36;;;;;;;1.83;1.17;;;10.80;1.00;;;;;;4972646;28;20212;-65
2021/10/04 05:40:04;;;;;;;1.70;1.10;;;10.80;1.00;;;;;;4996719;23;20742;-65
2021/10/04 05:42:32;;;;;;;1.80;1.00;;;10.80;1.00;;;;;;4992203;28;20258;-63
2021/10/04 05:44:59;;;;;;;1.03;0.93;;;10.80;13.60;;;;;;4991551;28;20664;-62
2021/10/04 05:47:26;;;;;;;1.73;0.97;;;10.70;13.80;;;;;;4991955;28;20214;-62
2021/10/04 05:49:53;;;;;;;2.87;1.43;;;10.80;19.00;;;;;;4992028;28;20227;-63
2021/10/04 05:52:19;;;;;;;1.57;1.00;;;10.80;1.00;;;;;;4992038;28;20261;-65
2021/10/04 05:54:47;;;;;;;4.03;1.13;;;10.80;1.00;;;;;;4991361;28;20227;-65
2021/10/04 05:57:15;;;;;;;1.97;1.10;;;10.80;1.00;;;;;;4991607;28;20267;-65
2021/10/04 05:59:41;;;;;;;3.93;1.20;;;10.80;1.00;;;;;;4992013;28;20243;-63
2021/10/04 06:02:08;;;;;;;1.83;1.17;;;10.80;1.00;;;;;;4992063;28;20215;-63
2021/10/04 06:04:35;;;;;;;2.43;1.23;;;10.90;1.00;;;;;;4991707;28;20250;-63
2021/10/04 06:07:01;;;;;;;1.50;1.00;;;10.90;1.00;;;;;;4991276;28;20243;-63
2021/10/04 06:09:28;;;;;;;1.83;1.10;;;10.90;1.00;;;;;;4991789;28;20708;-63
2021/10/04 06:11:56;;;;;;;1.63;1.03;;;10.90;99.90;;;;;;4992073;28;20211;-62
2021/10/04 06:14:23;;;;;;;2.63;1.03;;;10.90;99.90;;;;;;4991870;28;20255;-63
2021/10/04 06:16:50;;;;;;;1.80;1.10;;;10.90;84.40;;;;;;4991966;28;20203;-63
2021/10/04 06:19:17;;;;;;;1.30;1.10;;;10.90;99.90;;;;;;4991516;28;20278;-63
2021/10/04 06:21:43;;;;;;;2.67;1.40;;;10.90;99.90;;;;;;4994099;28;20676;-63
2021/10/04 06:24:10;;;;;;;3.10;0.97;;;10.90;99.90;;;;;;4995615;28;20833;-63
2021/10/04 06:26:37;;;;;;;2.87;1.13;;;11.00;99.90;;;;;;4995168;28;20204;-63
2021/10/04 06:29:05;;;;;;;1.97;1.13;;;11.00;99.90;;;;;;4995183;28;20735;-63
2021/10/04 06:31:32;;;;;;;1.17;0.90;;;11.00;99.90;;;;;;4995593;28;20322;-63
2021/10/04 06:33:58;;;;;;;2.60;1.30;;;11.10;1.00;;;;;;4995571;28;20271;-63
2021/10/04 06:36:25;;;;;;;3.83;1.63;;;11.10;1.00;;;;;;4994474;28;20639;-63
2021/10/04 06:38:52;;;;;;;4.23;1.40;;;11.10;99.90;;;;;;4995273;28;20239;-63
2021/10/04 06:41:18;;;;;;;1.87;1.33;;;11.10;99.90;;;;;;4995330;28;20714;-64
2021/10/04 06:43:45;;;;;;;2.70;1.27;;;11.20;1.00;;;;;;4995484;28;20214;-65
2021/10/04 06:46:13;;;;;;;1.83;1.10;;;11.20;1.00;;;;;;4994774;28;20215;-66
2021/10/04 06:48:41;;;;;;;1.10;1.00;;;11.30;1.00;;;;;;4994739;28;20227;-65
2021/10/04 06:51:08;;;;;;;1.20;1.10;;;11.30;80.70;;;;;;4994846;28;20269;-65
2021/10/04 06:53:35;;;;;;;1.40;1.00;;;11.30;99.90;;;;;;4994964;28;20213;-65
2021/10/04 06:56:02;;;;;;;2.97;1.27;;;11.30;99.90;;;;;;4994878;28;20238;-66
2021/10/04 06:58:29;;;;;;;2.53;1.00;;;11.40;1.00;;;;;;4994580;28;20604;-65
2021/10/04 07:00:55;;;;;;;3.13;1.23;;;11.40;99.90;;;;;;4994856;28;20607;-66
2021/10/04 07:03:23;;;;;;;3.80;1.37;;;11.50;1.00;;;;;;4994531;28;20208;-65
2021/10/04 07:05:51;;;;;;;2.63;1.17;;;11.50;1.00;;;;;;4994574;28;20203;-66
2021/10/04 07:08:18;;;;;;;2.40;1.03;;;11.60;99.90;;;;;;4994451;28;20335;-67
2021/10/04 07:10:45;;;;;;;2.30;1.10;;;11.60;99.90;;;;;;5001578;28;20673;-67
2021/10/04 07:13:11;;;;;;;2.00;1.10;;;11.70;99.90;;;;;;5014009;28;20718;-67
2021/10/04 07:15:38;;;;;;;1.73;1.00;;;11.70;63.50;;;;;;5013539;28;20280;-66
2021/10/04 07:18:05;;;;;;;2.33;1.10;;;11.70;99.90;;;;;;5014032;28;20211;-67
2021/10/04 07:20:33;;;;;;;1.50;1.00;;;11.70;1.00;;;;;;5014136;28;20266;-66
2021/10/04 07:23:00;;;;;;;2.17;1.07;;;11.80;99.90;;;;;;5014156;28;20615;-65
2021/10/04 07:25:27;;;;;;;3.67;1.03;;;11.80;99.90;;;;;;5013657;28;20201;-65
2021/10/04 07:27:54;;;;;;;3.77;1.20;;;11.90;1.00;;;;;;4999266;28;20203;-65
2021/10/04 07:30:21;;;;;;;2.10;0.87;;;11.90;1.00;;;;;;4994349;28;20211;-65
2021/10/04 07:32:47;;;;;;;2.23;1.10;;;12.00;1.00;;;;;;4994550;28;20579;-64
2021/10/04 07:35:15;;;;;;;2.47;1.23;;;12.00;99.90;;;;;;4994040;28;20301;-63
2021/10/04 07:37:43;;;;;;;2.80;1.20;;;12.00;70.00;;;;;;4994257;28;20299;-63
2021/10/04 07:40:11;;;;;;;1.47;1.13;;;12.10;21.30;;;;;;4994079;28;20240;-63
2021/10/04 07:42:38;;;;;;;4.37;1.00;;;12.10;1.00;;;;;;4994372;28;20211;-63
2021/10/04 07:45:06;;;;;;;1.80;1.20;;;12.20;1.00;;;;;;4993405;28;20206;-63
2021/10/04 07:47:33;;;;;;;6.00;1.23;;;12.30;1.00;;;;;;5008049;28;20557;-64
2021/10/04 07:50:00;;;;;;;2.57;1.00;;;12.40;1.00;;;;;;5012767;28;20284;-68
2021/10/04 07:52:26;;;;;;;2.43;0.90;;;12.50;99.90;;;;;;5012719;28;20204;-65
2021/10/04 07:54:54;;;;;;;3.13;0.90;;;12.60;99.90;;;;;;5012855;28;20675;-65
2021/10/04 07:57:21;;;;;;;5.33;1.00;;;12.60;1.00;;;;;;5013217;28;20624;-65
2021/10/04 07:59:47;;;;;;;1.90;0.80;;;12.60;99.90;;;;;;5012992;28;20890;-65
2021/10/04 08:02:14;;;;;;;2.33;1.00;;;12.70;99.90;;;;;;5013491;28;20205;-65
2021/10/04 08:04:43;;;;;;;1.70;1.07;;;12.70;1.00;;;;;;5012695;28;20213;-67
2021/10/04 08:07:10;;;;;;;3.10;1.50;;;12.70;99.90;;;;;;5013030;28;20211;-63
2021/10/04 08:09:36;;;;;;;1.37;0.93;;;12.70;99.90;;;;;;5013136;28;20234;-64
2021/10/04 08:12:04;;;;;;;2.33;1.00;;;12.80;99.90;;;;;;5012990;28;20577;-64
2021/10/04 08:14:31;;;;;;;1.23;1.00;;;12.90;99.90;;;;;;5013309;28;20207;-64
2021/10/04 08:17:00;;;;;;;6.47;1.20;;;13.00;1.00;;;;;;5012773;28;20657;-63
2021/10/04 08:19:27;;;;;;;5.47;1.33;;;13.00;1.00;;;;;;5013280;28;20223;-63
2021/10/04 08:21:54;;;;;;;1.20;0.77;;;13.00;32.60;;;;;;5013048;28;20211;-66
2021/10/04 08:24:21;;;;;;;1.43;1.00;;;13.10;99.90;;;;;;5013045;28;20206;-65
2021/10/04 08:26:48;;;;;;;2.47;1.00;;;13.10;99.90;;;;;;5012173;28;20723;-65
2021/10/04 08:29:16;;;;;;;3.40;1.00;;;13.20;99.90;;;;;;5012550;28;20719;-67
2021/10/04 08:31:43;;;;;;;7.17;1.40;;;13.20;99.90;;;;;;5012940;28;20231;-67
2021/10/04 08:34:09;;;;;;;1.40;1.00;;;13.20;99.90;;;;;;5012711;28;20586;-67
2021/10/04 08:36:37;;;;;;;2.37;0.97;;;13.20;1.00;;;;;;5012352;28;20630;-67
2021/10/04 08:39:06;;;;;;;1.90;1.10;;;13.20;99.90;;;;;;5012158;28;20245;-69
2021/10/04 08:41:34;;;;;;;3.53;1.10;;;13.20;99.90;;;;;;5012927;28;20214;-66
2021/10/04 08:44:04;;;;;;;3.70;1.10;;;13.10;99.90;;;;;;5012051;28;20214;-66
2021/10/04 08:46:33;;;;;;;4.13;1.20;;;13.20;99.90;;;;;;5011965;28;20202;-66
2021/10/04 08:49:00;;;;;;;2.13;1.33;;;13.30;99.90;;;;;;5012383;28;20235;-65
2021/10/04 08:51:26;;;;;;;2.10;1.33;;;13.30;1.00;;;;;;4997899;28;20270;-65
2021/10/04 08:53:53;;;;;;;3.13;1.27;;;13.30;99.90;;;;;;4992562;28;20583;-65
2021/10/04 08:56:20;;;;;;;4.07;0.97;;;13.30;8.10;;;;;;4992484;28;20539;-66
2021/10/04 08:58:47;;;;;;;2.30;0.93;;;13.30;99.90;;;;;;4992654;28;20224;-67
2021/10/04 09:01:13;;;;;;;2.57;1.20;;;13.30;99.90;;;;;;4992659;28;20695;-67
2021/10/04 09:03:47;;;;;;;3.27;1.30;;;13.40;99.90;;;;;;4992780;28;20746;-65
2021/10/04 09:06:27;;;;;;;5.03;1.37;;;13.40;99.90;;;;;;4999687;28;20203;-64
2021/10/04 09:08:55;;;;;;;5.90;1.30;;;13.50;1.00;;;;;;5012198;28;20293;-64
2021/10/04 09:11:33;;;;;;;1.60;0.90;;;13.60;1.00;;;;;;5012345;28;20253;-65
2021/10/04 09:14:06;;;;;;;1.97;1.00;;;13.70;1.00;;;;;;5011933;28;20732;-65
2021/10/04 09:16:54;;;;;;;3.70;1.17;;;13.70;1.00;;;;;;5011666;28;20230;-66
2021/10/04 09:19:24;;;;;;;2.43;0.93;;;13.80;1.00;;;;;;5003425;28;20223;-65
2021/10/04 09:22:09;;;;;;;4.27;1.70;;;13.80;1.00;;;;;;5012040;28;20261;-65
2021/10/04 09:24:37;;;;;;;2.00;0.93;;;13.80;1.00;;;;;;5011582;28;20218;-65
2021/10/04 09:27:22;;;;;;;3.67;1.10;;;13.80;99.90;;;;;;5011344;28;20276;-66
2021/10/04 09:29:50;;;;;;;5.43;1.30;;;13.90;99.90;;;;;;5011659;28;20743;-65
2021/10/04 09:32:26;;;;;;;2.93;1.43;;;14.00;99.90;;;;;;5011816;28;20211;-66
2021/10/04 09:35:20;;;;;;;2.13;0.97;;;14.10;99.90;;;;;;5011406;28;20229;-65
2021/10/04 09:37:49;;;;;;;6.87;1.17;;;14.10;99.90;;;;;;5011437;28;20209;-65
2021/10/04 09:40:38;;;;;;;2.70;1.10;;;14.10;99.90;;;;;;5009971;23;20317;-65
2021/10/04 09:43:08;;;;;;;2.27;0.80;;;14.10;99.90;;;;;;4992115;28;20210;-65
2021/10/04 09:45:35;;;;;;;3.97;1.07;;;14.20;99.90;;;;;;4991967;28;20213;-66
2021/10/04 09:48:10;;;;;;;2.43;0.93;;;14.30;99.90;;;;;;4991420;28;20211;-65
2021/10/04 09:50:39;;;;;;;3.70;1.00;;;14.30;99.90;;;;;;4992441;28;20202;-66
2021/10/04 09:53:11;;;;;;;4.27;1.40;;;14.30;99.90;;;;;;4992263;28;20213;-66
2021/10/04 09:55:39;;;;;;;5.50;1.40;;;14.40;99.90;;;;;;4992539;28;20645;-66
2021/10/04 09:58:10;;;;;;;3.97;0.93;;;14.40;99.90;;;;;;4995736;28;20726;-66
2021/10/04 10:00:39;;;;;;;1.67;0.97;;;14.50;99.90;;;;;;4996156;28;20290;-66
2021/10/04 10:03:09;;;;;;;5.20;0.90;;;14.50;91.80;;;;;;4996467;28;20214;-66
2021/10/04 10:05:38;;;;;;;5.67;1.37;;;14.50;35.40;;;;;;4995194;28;20214;-63
2021/10/04 10:08:06;;;;;;;3.33;0.97;;;14.60;24.60;;;;;;4995664;28;20366;-62
2021/10/04 10:10:33;;;;;;;3.73;0.97;;;14.70;53.40;;;;;;4995757;28;20257;-65
2021/10/04 10:13:00;;;;;;;4.03;1.20;;;14.80;83.80;;;;;;4995600;28;20602;-65
2021/10/04 10:15:29;;;;;;;6.43;1.17;;;14.80;1.00;;;;;;4995560;28;20207;-65
2021/10/04 10:18:03;;;;;;;2.07;0.93;;;14.80;1.00;;;;;;4995417;28;20208;-68
2021/10/04 10:20:31;;;;;;;6.30;1.47;;;14.70;1.00;;;;;;4995511;28;20672;-64
2021/10/04 10:22:59;;;;;;;4.67;1.00;;;14.70;1.00;;;;;;4995624;28;20683;-64
2021/10/04 10:25:39;;;;;;;3.10;1.00;;;14.60;1.00;;;;;;4995015;28;20275;-65
2021/10/04 10:28:24;;;;;;;4.40;1.20;;;14.60;1.00;;;;;;4995153;28;20214;-64
2021/10/04 10:30:52;;;;;;;2.90;1.00;;;14.60;1.00;;;;;;4995631;28;20204;-63
2021/10/04 10:33:45;;;;;;;3.10;1.17;;;14.60;1.00;;;;;;4995428;28;20231;-62
2021/10/04 10:36:12;;;;;;;3.07;0.90;;;14.70;1.00;;;;;;4995194;28;20266;-63
2021/10/04 10:39:03;;;;;;;2.37;1.10;;;14.90;1.00;;;;;;4995089;28;20231;-63
2021/10/04 10:41:30;;;;;;;1.83;1.13;;;15.20;53.60;;;;;;4991282;28;20250;-63
2021/10/04 10:44:18;;;;;;;2.93;0.80;;;15.40;1.00;;;;;;4995429;28;20295;-64
2021/10/04 10:46:54;;;;;;;3.53;1.10;;;15.60;1.00;;;;;;4989882;28;20584;-64
2021/10/04 10:49:58;;;;;;;2.37;1.10;;;15.70;1.00;;;;;;4994873;28;20239;-65
2021/10/04 10:52:27;;;;;;;3.37;0.80;;;15.60;1.00;;;;;;4994876;28;20261;-64
2021/10/04 10:54:55;;;;;;;3.40;0.90;;;15.50;1.00;;;;;;4994961;28;20270;-64
2021/10/04 10:57:23;;;;;;;2.60;0.80;;;15.40;1.00;;;;;;4994314;28;20626;-64
2021/10/04 11:00:14;;;;;;;3.17;1.10;;;15.50;1.00;;;;;;4994144;28;20231;-64
2021/10/04 11:02:52;;;;;;;7.10;0.90;;;15.50;1.00;;;;;;4994944;28;20238;-65
2021/10/04 11:05:48;;;;;;;3.27;1.13;;;15.50;1.00;;;;;;4994536;28;20302;-64
2021/10/04 11:08:17;;;;;;;5.10;1.30;;;15.50;1.00;;;;;;4993775;28;20231;-65
2021/10/04 11:11:19;;;;;;;2.63;0.97;;;15.50;1.00;;;;;;4994716;28;20215;-64
2021/10/04 11:14:00;;;;;;;4.73;1.00;;;15.70;1.00;;;;;;4953489;29;20213;-65
2021/10/04 11:16:39;;;;;;;3.07;0.70;;;15.70;1.00;;;;;;4952876;28;20953;-67
2021/10/04 11:19:06;;;;;;;1.90;0.90;;;15.50;1.00;;;;;;4978928;28;20231;-68
2021/10/04 11:21:34;;;;;;;4.70;0.80;;;15.50;1.00;;;;;;4994517;28;20208;-69
2021/10/04 11:24:04;;;;;;;4.60;1.00;;;15.50;1.00;;;;;;4994396;28;20215;-67
2021/10/04 11:26:34;;;;;;;3.70;0.93;;;15.60;1.00;;;;;;4994002;28;20235;-67
2021/10/04 11:29:03;;;;;;;1.97;0.93;;;15.60;1.00;;;;;;4994242;28;20227;-71
2021/10/04 11:31:32;;;;;;;1.50;0.87;;;15.70;1.00;;;;;;4994221;28;20211;-65
2021/10/04 11:34:01;;;;;;;5.83;0.87;;;15.80;1.00;;;;;;4994248;28;20673;-65
2021/10/04 11:36:30;;;;;;;2.90;0.80;;;16.00;1.00;;;;;;4993381;28;20228;-65
2021/10/04 11:38:59;;;;;;;3.10;1.00;;;16.20;1.00;;;;;;4993876;28;20234;-65
2021/10/04 11:41:28;;;;;;;2.70;0.90;;;16.30;1.00;;;;;;4994218;28;20281;-67
2021/10/04 11:43:58;;;;;;;2.47;0.90;;;16.20;1.00;;;;;;4993987;28;20262;-65
2021/10/04 11:46:27;;;;;;;3.17;0.93;;;16.10;1.00;;;;;;4993587;28;20203;-65
2021/10/04 11:49:05;;;;;;;5.33;0.77;;;16.10;1.00;;;;;;4993465;28;20232;-65
2021/10/04 11:51:34;;;;;;;5.37;1.07;;;16.20;1.00;;;;;;4994159;28;20207;-64
2021/10/04 11:54:02;;;;;;;2.20;0.80;;;16.30;1.00;;;;;;4993813;28;20212;-65
2021/10/04 11:56:29;;;;;;;2.10;0.63;;;16.30;1.00;;;;;;4993540;28;20285;-65
2021/10/04 11:58:58;;;;;;;2.30;1.13;;;16.30;1.00;;;;;;4993639;28;20224;-66
2021/10/04 12:01:33;;;;;;;8.83;0.90;;;16.30;1.00;;;;;;4993524;28;20653;-66
2021/10/04 12:04:02;;;;;;;3.10;0.90;;;16.40;1.00;;;;;;4994141;28;20219;-66
2021/10/04 12:06:30;;;;;;;4.60;1.27;;;16.40;1.00;;;;;;4992988;28;20255;-66
2021/10/04 12:08:57;;;;;;;4.10;0.80;;;16.50;1.00;;;;;;4993257;28;20318;-65
2021/10/04 12:11:25;;;;;;;3.80;0.90;;;16.40;1.00;;;;;;4993390;28;20207;-66
2021/10/04 12:13:53;;;;;;;3.63;1.33;;;16.30;1.00;;;;;;4993173;28;20203;-66
2021/10/04 12:16:23;;;;;;;3.70;1.10;;;16.30;1.00;;;;;;4993269;28;20298;-66
2021/10/04 12:18:52;;;;;;;3.67;1.10;;;16.50;1.00;;;;;;4992294;28;20231;-66
2021/10/04 12:21:21;;;;;;;2.90;0.90;;;16.70;1.00;;;;;;4993416;28;20212;-68
2021/10/04 12:24:10;;;;;;;4.27;1.00;;;16.70;1.00;;;;;;4993298;28;20211;-66
2021/10/04 12:26:49;;;;;;;4.60;1.27;;;16.50;1.00;;;;;;4992986;28;20210;-64
2021/10/04 12:29:28;;;;;;;4.50;1.20;;;16.50;1.00;;;;;;4992545;28;20235;-64
2021/10/04 12:31:57;;;;;;;2.50;0.80;;;16.50;1.00;;;;;;4993166;28;20718;-64
2021/10/04 12:34:26;;;;;;;5.57;1.73;;;16.80;1.00;;;;;;4993077;28;20213;-64
2021/10/04 12:36:56;;;;;;;2.33;0.90;;;16.90;1.00;;;;;;4992340;28;20224;-65
2021/10/04 12:39:39;;;;;;;3.30;0.77;;;17.00;1.00;;;;;;4992989;28;20267;-66
2021/10/04 12:42:06;;;;;;;3.03;1.30;;;16.90;1.00;;;;;;4993068;28;20215;-65
2021/10/04 12:44:38;;;;;;;2.67;0.90;;;16.90;1.00;;;;;;4992730;28;20262;-65
2021/10/04 12:47:09;;;;;;;5.00;0.90;;;16.80;1.00;;;;;;4992414;28;20200;-65
2021/10/04 12:49:36;;;;;;;1.60;0.90;;;16.80;1.00;;;;;;4993003;28;20258;-64
2021/10/04 12:52:05;;;;;;;2.30;0.90;;;16.60;1.00;;;;;;4992926;28;20211;-65
2021/10/04 12:54:34;;;;;;;2.40;0.90;;;16.60;1.00;;;;;;4992677;28;20203;-65
2021/10/04 12:57:00;;;;;;;2.73;1.03;;;16.60;99.90;;;;;;4992316;28;20227;-67
2021/10/04 12:59:29;;;;;;;2.80;0.97;;;16.60;1.00;;;;;;4992938;28;20231;-66
2021/10/04 13:01:57;;;;;;;3.70;1.20;;;16.50;1.00;;;;;;4992738;28;20242;-65